Time;durP1;ratioP1;P1;durP2;ratioP2;P2;SDS_P1;SDS_P2;PMS_P1;PMS_P2;Temp;Humidity;BMP_temperature;BMP_pressure;BME280_temperature;BME280_humidity;BME280_pressure;Samples;Min_cycle;Max_cycle;Signal;HPM_P1;HPM_P2
2022/01/26 00:00:05;;;;;;;140.77;38.22;;;1.50;85.60;;;;;;4997187;28;20424;-88
2022/01/26 00:08:06;;;;;;;139.38;40.88;;;1.50;85.60;;;;;;4981847;28;20200;-89
2022/01/26 00:10:34;;;;;;;142.43;42.22;;;1.50;85.60;;;;;;4996304;28;20050;-88
2022/01/26 00:13:01;;;;;;;126.80;40.42;;;1.50;85.70;;;;;;4995857;28;20137;-88
2022/01/26 00:15:30;;;;;;;138.90;41.58;;;1.50;85.70;;;;;;4995554;28;20051;-89
2022/01/26 00:17:57;;;;;;;135.75;41.33;;;1.50;85.70;;;;;;4995614;28;20070;-88
2022/01/26 00:20:37;;;;;;;148.32;42.17;;;1.50;85.70;;;;;;4998647;28;20043;-88
2022/01/26 00:23:22;;;;;;;137.07;39.60;;;1.50;85.70;;;;;;4982171;28;20426;-88
2022/01/26 00:39:16;;;;;;;122.45;41.28;;;1.50;85.70;;;;;;4996393;28;20054;-88
2022/01/26 00:41:45;;;;;;;136.63;40.03;;;1.60;85.70;;;;;;4997608;28;20045;-88
2022/01/26 00:44:12;;;;;;;132.82;40.90;;;1.60;85.70;;;;;;4996306;28;20423;-88
2022/01/26 00:46:46;;;;;;;129.27;41.15;;;1.60;85.70;;;;;;4993935;28;20081;-88
2022/01/26 00:49:16;;;;;;;130.57;42.05;;;1.50;85.70;;;;;;4993784;28;20054;-88
2022/01/26 00:51:43;;;;;;;125.63;41.85;;;1.60;85.70;;;;;;4996044;28;20061;-88
2022/01/26 00:54:10;;;;;;;123.35;41.22;;;1.60;85.70;;;;;;4996507;28;20050;-88
2022/01/26 00:56:38;;;;;;;134.40;41.00;;;1.60;85.70;;;;;;4996250;28;20414;-89
2022/01/26 00:59:05;;;;;;;134.90;41.67;;;1.60;85.70;;;;;;4996125;28;20060;-88
2022/01/26 01:01:33;;;;;;;127.18;40.88;;;1.60;85.70;;;;;;4995169;28;20052;-89
2022/01/26 01:04:00;;;;;;;134.82;43.20;;;1.60;85.70;;;;;;4994643;28;20053;-89
2022/01/26 01:06:31;;;;;;;129.65;41.80;;;1.60;85.70;;;;;;4994838;28;20495;-88
2022/01/26 01:08:58;;;;;;;124.55;41.33;;;1.60;85.70;;;;;;4995775;28;20056;-89
2022/01/26 01:11:26;;;;;;;127.35;43.03;;;1.60;85.70;;;;;;4995931;28;20407;-89
2022/01/26 01:13:55;;;;;;;126.75;41.55;;;1.60;85.70;;;;;;4994620;28;20054;-88
2022/01/26 01:16:23;;;;;;;124.68;42.25;;;1.60;85.70;;;;;;4994927;28;20054;-88
2022/01/26 01:26:59;;;;;;;140.30;44.45;;;1.60;85.70;;;;;;4995431;28;20050;-89
2022/01/26 01:29:46;;;;;;;135.48;45.53;;;1.60;85.70;;;;;;4994437;28;20058;-88
2022/01/26 01:32:16;;;;;;;134.95;45.13;;;1.60;85.70;;;;;;4981902;28;20057;-88
2022/01/26 01:34:43;;;;;;;132.02;44.50;;;1.70;85.70;;;;;;4995101;28;20058;-88
2022/01/26 01:37:15;;;;;;;141.88;47.10;;;1.60;85.70;;;;;;4995533;28;20065;-88
2022/01/26 01:39:42;;;;;;;144.95;48.17;;;1.60;85.70;;;;;;4995431;28;20506;-88
2022/01/26 01:42:10;;;;;;;140.18;46.17;;;1.70;85.70;;;;;;4993948;28;20053;-88
2022/01/26 01:44:38;;;;;;;130.52;44.85;;;1.60;85.70;;;;;;4993939;28;20466;-88
2022/01/26 01:47:06;;;;;;;132.15;46.58;;;1.70;85.70;;;;;;4995145;28;20061;-88
2022/01/26 01:49:35;;;;;;;137.63;47.30;;;1.70;85.70;;;;;;4993939;28;20419;-88
2022/01/26 01:52:06;;;;;;;146.73;46.75;;;1.70;85.70;;;;;;4995573;28;20073;-88
2022/01/26 01:54:33;;;;;;;129.73;45.00;;;1.70;85.70;;;;;;4993884;28;20054;-88
2022/01/26 01:57:00;;;;;;;146.02;48.22;;;1.70;85.70;;;;;;4993775;28;20057;-88
2022/01/26 01:59:30;;;;;;;143.60;49.05;;;1.70;85.70;;;;;;4994042;28;20626;-88
2022/01/26 02:01:59;;;;;;;150.40;50.28;;;1.70;85.70;;;;;;4994591;28;20064;-89
2022/01/26 02:04:26;;;;;;;150.80;50.35;;;1.70;85.70;;;;;;4994088;28;20046;-88
2022/01/26 02:06:53;;;;;;;144.80;49.10;;;1.70;85.70;;;;;;4994614;28;20050;-88
2022/01/26 02:09:20;;;;;;;137.73;48.47;;;1.70;85.70;;;;;;4994732;28;20054;-88
2022/01/26 02:11:51;;;;;;;140.10;50.13;;;1.70;85.70;;;;;;4994778;28;20053;-88
2022/01/26 02:14:45;;;;;;;152.93;53.72;;;1.70;85.70;;;;;;4993772;28;20138;-88
2022/01/26 03:05:50;;;;;;;166.80;55.72;;;1.80;85.80;;;;;;4934047;29;20063;-88
2022/01/26 03:08:26;;;;;;;148.82;52.30;;;1.90;85.80;;;;;;4933917;29;20051;-89
2022/01/26 03:10:56;;;;;;;173.02;56.70;;;1.80;85.80;;;;;;4933591;29;20069;-88
2022/01/26 03:13:28;;;;;;;155.88;53.35;;;1.90;85.80;;;;;;4933040;29;20052;-88
2022/01/26 03:16:01;;;;;;;160.30;55.92;;;1.80;85.80;;;;;;4917803;29;20056;-88
2022/01/26 03:18:50;;;;;;;153.93;52.47;;;1.90;85.80;;;;;;4937730;28;20057;-88
2022/01/26 03:21:22;;;;;;;160.23;53.95;;;1.90;85.80;;;;;;4993662;28;20418;-87
2022/01/26 03:29:58;;;;;;;147.13;50.97;;;1.90;85.80;;;;;;4993231;28;20062;-88
2022/01/26 03:34:51;;;;;;;160.48;52.47;;;1.90;85.80;;;;;;4993440;28;20479;-88
2022/01/26 03:37:21;;;;;;;153.05;49.90;;;1.90;85.80;;;;;;4990819;28;20054;-89
2022/01/26 03:39:51;;;;;;;156.93;53.33;;;1.90;85.80;;;;;;4993943;28;20537;-88
2022/01/26 03:42:18;;;;;;;143.02;50.65;;;1.90;85.80;;;;;;4993425;28;20527;-89
2022/01/26 03:44:45;;;;;;;157.65;52.20;;;1.90;85.80;;;;;;4993513;28;20503;-88
2022/01/26 03:47:12;;;;;;;155.18;51.25;;;1.90;85.80;;;;;;4993434;28;20054;-88
2022/01/26 03:49:41;;;;;;;145.57;51.03;;;1.90;85.80;;;;;;4992853;28;20134;-89
2022/01/26 03:52:10;;;;;;;167.30;55.78;;;1.90;85.80;;;;;;4993093;28;20105;-88
2022/01/26 03:54:37;;;;;;;159.73;51.72;;;1.90;85.80;;;;;;4993662;28;20080;-88
2022/01/26 03:57:05;;;;;;;153.02;50.60;;;1.90;85.80;;;;;;4992430;28;20047;-88
2022/01/26 03:59:32;;;;;;;140.23;50.10;;;1.90;85.80;;;;;;4993005;28;20435;-88
2022/01/26 04:01:59;;;;;;;151.07;51.05;;;1.90;85.80;;;;;;4976818;28;20049;-88
2022/01/26 04:04:29;;;;;;;154.88;51.28;;;1.90;85.80;;;;;;4992719;28;20526;-88
2022/01/26 04:06:59;;;;;;;140.98;48.72;;;1.90;85.80;;;;;;4993274;28;20062;-88
2022/01/26 04:09:27;;;;;;;139.95;49.20;;;1.90;85.80;;;;;;4993101;28;20058;-88
2022/01/26 04:11:54;;;;;;;145.27;51.40;;;1.90;85.80;;;;;;4993378;28;20065;-88
2022/01/26 04:14:26;;;;;;;143.73;50.47;;;1.90;85.80;;;;;;4992990;28;20050;-89
2022/01/26 04:16:55;;;;;;;139.73;48.83;;;2.00;85.80;;;;;;4992134;28;20042;-88
2022/01/26 04:19:23;;;;;;;148.57;50.50;;;2.00;85.80;;;;;;4991155;28;20427;-88
2022/01/26 04:24:33;;;;;;;136.45;49.25;;;2.00;85.80;;;;;;4996630;28;20088;-88
2022/01/26 04:27:05;;;;;;;133.10;48.78;;;1.90;85.80;;;;;;4996155;28;20042;-88
2022/01/26 04:29:34;;;;;;;149.88;48.95;;;2.00;85.80;;;;;;4995521;28;20042;-88
2022/01/26 04:32:04;;;;;;;141.13;49.15;;;2.00;85.80;;;;;;4981591;28;20046;-88
2022/01/26 04:34:33;;;;;;;137.80;50.03;;;2.00;85.80;;;;;;4992155;28;20570;-89
2022/01/26 04:37:16;;;;;;;135.77;48.97;;;2.00;85.80;;;;;;4996498;28;20046;-88
2022/01/26 04:39:50;;;;;;;142.75;50.35;;;1.90;85.80;;;;;;4996598;28;20046;-88
2022/01/26 04:42:27;;;;;;;140.82;50.97;;;2.00;85.80;;;;;;4996094;28;20049;-88
2022/01/26 04:45:01;;;;;;;126.80;48.22;;;2.00;85.80;;;;;;4996488;28;20050;-89
2022/01/26 04:47:29;;;;;;;133.98;47.53;;;2.00;85.80;;;;;;4995157;28;20574;-86
2022/01/26 04:49:56;;;;;;;146.75;52.67;;;2.00;85.80;;;;;;4995357;28;20042;-88
2022/01/26 04:52:23;;;;;;;140.40;50.45;;;2.00;85.80;;;;;;4995394;28;20061;-88
2022/01/26 04:54:51;;;;;;;145.65;52.88;;;2.00;85.90;;;;;;4996385;28;20059;-89
2022/01/26 04:57:18;;;;;;;136.10;48.47;;;2.00;85.90;;;;;;4995857;28;20060;-88
2022/01/26 04:59:45;;;;;;;136.15;48.00;;;2.00;85.90;;;;;;4996196;28;20061;-88
2022/01/26 05:02:12;;;;;;;144.85;50.00;;;2.00;85.80;;;;;;4996338;28;20061;-88
2022/01/26 05:04:39;;;;;;;138.07;49.20;;;2.00;85.90;;;;;;4995524;28;20142;-89
2022/01/26 05:07:07;;;;;;;142.07;50.58;;;2.00;85.90;;;;;;4995244;28;20397;-88
2022/01/26 05:09:34;;;;;;;132.00;48.58;;;2.00;85.90;;;;;;4998043;28;20053;-88
2022/01/26 05:12:02;;;;;;;129.73;48.55;;;2.00;85.90;;;;;;4995608;28;20054;-88
2022/01/26 05:14:29;;;;;;;132.15;49.33;;;2.00;85.90;;;;;;4995029;28;20050;-87
2022/01/26 05:16:56;;;;;;;140.68;51.25;;;2.00;85.90;;;;;;4995785;28;20050;-88
2022/01/26 05:19:23;;;;;;;150.68;50.00;;;2.00;85.90;;;;;;4994910;28;20491;-88
2022/01/26 05:21:51;;;;;;;145.05;51.17;;;2.00;85.90;;;;;;4995803;28;20058;-89
2022/01/26 05:24:18;;;;;;;135.93;49.40;;;2.00;85.90;;;;;;4995536;28;20057;-89
2022/01/26 05:26:45;;;;;;;133.07;49.30;;;2.00;85.90;;;;;;4995354;28;20053;-88
2022/01/26 05:29:12;;;;;;;139.25;50.38;;;2.00;85.80;;;;;;4994730;28;20054;-88
2022/01/26 05:31:40;;;;;;;136.55;51.30;;;2.00;85.90;;;;;;4993755;28;20047;-89
2022/01/26 05:34:07;;;;;;;131.25;50.15;;;2.00;85.90;;;;;;4994821;28;20065;-89
2022/01/26 05:36:34;;;;;;;144.07;50.90;;;2.10;85.90;;;;;;4995195;28;20042;-90
2022/01/26 05:39:03;;;;;;;140.07;51.55;;;2.00;85.80;;;;;;4995251;28;20054;-89
2022/01/26 05:41:30;;;;;;;125.18;49.53;;;2.00;85.90;;;;;;4994001;28;20050;-87
2022/01/26 05:43:57;;;;;;;124.80;50.33;;;2.00;85.90;;;;;;4994186;28;20046;-89
2022/01/26 05:46:33;;;;;;;140.75;51.75;;;2.00;85.90;;;;;;4993207;28;20046;-88
2022/01/26 05:49:00;;;;;;;134.52;51.47;;;2.10;85.90;;;;;;4994993;28;20058;-89
2022/01/26 05:51:31;;;;;;;129.30;51.05;;;2.00;85.90;;;;;;4994072;28;20054;-88
2022/01/26 05:53:58;;;;;;;133.00;50.70;;;2.00;85.90;;;;;;4994723;28;20061;-88
2022/01/26 05:56:25;;;;;;;127.47;49.30;;;2.00;85.90;;;;;;4995459;28;20404;-89
2022/01/26 05:58:52;;;;;;;143.02;50.42;;;2.00;85.90;;;;;;4994965;28;20050;-88
2022/01/26 06:01:21;;;;;;;142.45;53.28;;;2.00;85.90;;;;;;4994132;28;20054;-88
2022/01/26 06:03:48;;;;;;;136.73;53.80;;;2.10;85.90;;;;;;4994968;28;20138;-88
2022/01/26 06:06:16;;;;;;;130.77;49.65;;;2.10;85.90;;;;;;4994782;28;20056;-87
2022/01/26 06:08:44;;;;;;;138.25;53.03;;;2.10;85.90;;;;;;4994033;28;20058;-88
2022/01/26 06:11:11;;;;;;;132.30;49.17;;;2.10;85.90;;;;;;4993463;28;20039;-88
2022/01/26 06:13:39;;;;;;;124.32;50.08;;;2.00;85.90;;;;;;4992790;28;20054;-87
2022/01/26 06:16:06;;;;;;;124.15;49.13;;;2.10;85.90;;;;;;4993283;28;20057;-89
2022/01/26 06:18:33;;;;;;;145.25;53.42;;;2.10;85.90;;;;;;4994649;28;20085;-89
2022/01/26 06:21:01;;;;;;;155.50;55.35;;;2.10;85.90;;;;;;4994607;28;20050;-88
2022/01/26 06:23:28;;;;;;;139.80;52.33;;;2.10;85.90;;;;;;4993348;28;20050;-88
2022/01/26 06:25:57;;;;;;;132.52;51.63;;;2.10;85.90;;;;;;4993295;28;20422;-89
2022/01/26 06:28:27;;;;;;;146.95;54.03;;;2.10;85.90;;;;;;4993496;28;20411;-88
2022/01/26 06:31:09;;;;;;;133.70;52.65;;;2.10;85.90;;;;;;4994452;28;20168;-88
2022/01/26 06:33:41;;;;;;;130.05;50.13;;;2.10;85.90;;;;;;4993346;28;20129;-88
2022/01/26 06:36:13;;;;;;;134.05;50.75;;;2.10;85.90;;;;;;4993374;28;20049;-88
2022/01/26 06:38:41;;;;;;;143.98;52.63;;;2.10;85.90;;;;;;4993893;28;20050;-88
2022/01/26 06:41:09;;;;;;;131.75;51.70;;;2.10;85.90;;;;;;4994403;28;20046;-87
2022/01/26 06:43:45;;;;;;;135.25;51.67;;;2.10;85.90;;;;;;4993037;28;20507;-87
2022/01/26 06:46:19;;;;;;;128.07;49.80;;;2.10;85.90;;;;;;4991470;28;20064;-88
2022/01/26 06:49:02;;;;;;;131.00;50.90;;;2.10;85.90;;;;;;4992219;28;20054;-88
2022/01/26 06:51:29;;;;;;;144.45;52.88;;;2.10;85.90;;;;;;4986782;28;20043;-88
2022/01/26 06:53:56;;;;;;;121.75;48.88;;;2.10;85.90;;;;;;4983590;28;20050;-88
2022/01/26 06:56:23;;;;;;;123.68;49.40;;;2.10;85.90;;;;;;4993736;28;20418;-88
2022/01/26 06:58:50;;;;;;;133.18;51.15;;;2.10;85.90;;;;;;4993599;28;20058;-88
2022/01/26 07:01:19;;;;;;;140.07;51.65;;;2.10;85.90;;;;;;4992491;28;20125;-88
2022/01/26 07:03:47;;;;;;;121.50;49.33;;;2.10;85.90;;;;;;4992393;28;20054;-87
2022/01/26 07:06:14;;;;;;;131.50;49.83;;;2.10;85.90;;;;;;4992187;28;20058;-88
2022/01/26 07:08:42;;;;;;;125.70;49.20;;;2.10;85.90;;;;;;4991298;28;20050;-89
2022/01/26 07:11:09;;;;;;;122.13;51.28;;;2.20;86.00;;;;;;4992612;28;20050;-88
2022/01/26 07:13:38;;;;;;;125.22;50.47;;;2.10;85.90;;;;;;4992820;28;20058;-88
2022/01/26 07:21:38;;;;;;;141.32;51.72;;;2.10;85.90;;;;;;4992938;28;20052;-87
2022/01/26 07:24:05;;;;;;;136.48;50.67;;;2.10;86.00;;;;;;4991721;28;20046;-87
2022/01/26 07:26:33;;;;;;;129.85;50.85;;;2.10;86.00;;;;;;4993397;28;20042;-87
2022/01/26 07:29:06;;;;;;;125.38;50.15;;;2.10;85.90;;;;;;4993283;28;20049;-87
2022/01/26 07:31:36;;;;;;;126.72;51.53;;;2.10;86.00;;;;;;4988619;28;20054;-87
2022/01/26 07:34:04;;;;;;;119.75;50.78;;;2.20;86.00;;;;;;4993445;28;20518;-87
2022/01/26 07:36:31;;;;;;;131.48;51.03;;;2.20;86.00;;;;;;4991743;28;20054;-87
2022/01/26 07:39:06;;;;;;;131.68;50.40;;;2.20;86.00;;;;;;4991729;28;20527;-88
2022/01/26 07:41:34;;;;;;;115.70;48.47;;;2.10;86.00;;;;;;4991925;28;20046;-88
2022/01/26 07:44:02;;;;;;;119.72;49.33;;;2.20;86.00;;;;;;4981628;28;20042;-87
2022/01/26 07:46:29;;;;;;;118.85;49.97;;;2.20;86.00;;;;;;4988095;28;20046;-87
2022/01/26 07:48:56;;;;;;;123.88;48.88;;;2.20;86.00;;;;;;4993160;28;20058;-87
2022/01/26 07:51:23;;;;;;;112.22;49.55;;;2.20;86.00;;;;;;4992672;28;20046;-87
2022/01/26 07:53:51;;;;;;;116.22;50.13;;;2.20;86.00;;;;;;4991538;28;20054;-86
2022/01/26 07:56:18;;;;;;;132.27;52.38;;;2.20;86.00;;;;;;4993928;28;20057;-87
2022/01/26 07:58:48;;;;;;;121.30;49.70;;;2.20;86.00;;;;;;4996916;28;20411;-87
2022/01/26 08:01:15;;;;;;;118.38;49.33;;;2.20;86.00;;;;;;4994134;28;20530;-88
2022/01/26 08:03:42;;;;;;;116.35;46.20;;;2.20;86.00;;;;;;4997300;28;20555;-87
2022/01/26 08:06:15;;;;;;;114.28;49.30;;;2.20;86.00;;;;;;4995189;28;20050;-88
2022/01/26 08:08:42;;;;;;;114.00;49.63;;;2.20;86.00;;;;;;4995994;28;20060;-88
2022/01/26 08:11:10;;;;;;;121.63;50.85;;;2.20;86.00;;;;;;4996953;28;20042;-88
2022/01/26 08:13:37;;;;;;;113.75;49.00;;;2.20;86.00;;;;;;4996060;28;20056;-88
2022/01/26 08:16:04;;;;;;;119.35;49.25;;;2.20;86.00;;;;;;4996654;28;20045;-87
2022/01/26 08:18:32;;;;;;;117.88;50.30;;;2.20;86.00;;;;;;4996580;28;20046;-89
2022/01/26 08:21:05;;;;;;;126.60;52.67;;;2.20;86.00;;;;;;4996522;28;20049;-88
2022/01/26 08:23:35;;;;;;;117.53;49.85;;;2.20;86.00;;;;;;4996257;28;20053;-87
2022/01/26 08:26:03;;;;;;;124.68;51.55;;;2.20;86.00;;;;;;4981133;28;20503;-88
2022/01/26 08:28:39;;;;;;;130.20;51.13;;;2.20;86.00;;;;;;4995509;28;20515;-89
2022/01/26 08:31:07;;;;;;;120.57;50.63;;;2.20;86.00;;;;;;4996823;28;20050;-88
2022/01/26 08:33:35;;;;;;;114.35;50.15;;;2.20;86.00;;;;;;4996245;28;20065;-90
2022/01/26 08:36:02;;;;;;;116.07;49.58;;;2.20;86.00;;;;;;4995340;28;20054;-89
2022/01/26 08:38:29;;;;;;;121.38;51.35;;;2.30;86.00;;;;;;4994645;28;20507;-89
2022/01/26 08:40:56;;;;;;;126.57;53.00;;;2.20;86.00;;;;;;4996313;28;20044;-89
2022/01/26 08:43:23;;;;;;;132.30;53.13;;;2.30;86.00;;;;;;4993953;28;20046;-89
2022/01/26 08:45:50;;;;;;;121.85;50.92;;;2.30;86.00;;;;;;4996218;28;20064;-88
2022/01/26 08:48:17;;;;;;;126.10;53.03;;;2.20;86.00;;;;;;4996601;28;20148;-88
2022/01/26 08:50:45;;;;;;;128.10;52.25;;;2.30;86.00;;;;;;4995872;28;20053;-88
2022/01/26 08:53:12;;;;;;;125.30;50.65;;;2.30;86.00;;;;;;4995824;28;20046;-88
2022/01/26 08:55:39;;;;;;;121.88;50.90;;;2.30;86.00;;;;;;4993931;28;20049;-90
2022/01/26 08:58:06;;;;;;;121.75;50.47;;;2.30;86.00;;;;;;4995344;28;20057;-89
2022/01/26 09:00:35;;;;;;;120.55;50.15;;;2.30;86.00;;;;;;4994229;28;20046;-91
2022/01/26 09:03:13;;;;;;;123.88;51.47;;;2.30;86.00;;;;;;4995771;28;20082;-90
2022/01/26 09:05:40;;;;;;;117.57;49.85;;;2.30;86.00;;;;;;5000749;28;20060;-90
2022/01/26 09:08:08;;;;;;;136.18;54.42;;;2.30;86.10;;;;;;4993271;28;20431;-89
2022/01/26 09:10:37;;;;;;;131.23;52.05;;;2.30;86.00;;;;;;4994039;28;20065;-89
2022/01/26 09:13:04;;;;;;;121.00;50.50;;;2.30;86.00;;;;;;4996063;28;20500;-89
2022/01/26 09:15:32;;;;;;;130.45;54.38;;;2.40;86.10;;;;;;4995025;28;20054;-88
2022/01/26 09:18:03;;;;;;;126.88;51.47;;;2.30;86.10;;;;;;4994783;28;20052;-89
2022/01/26 09:20:33;;;;;;;122.88;52.05;;;2.30;86.00;;;;;;4997128;28;20052;-89
2022/01/26 09:23:00;;;;;;;128.25;53.05;;;2.40;86.10;;;;;;4980182;28;20052;-88
2022/01/26 09:25:33;;;;;;;137.63;54.97;;;2.40;86.10;;;;;;4990418;28;20058;-88
2022/01/26 09:28:00;;;;;;;136.25;53.47;;;2.40;86.10;;;;;;4995173;28;20415;-88
2022/01/26 09:30:28;;;;;;;129.40;53.47;;;2.40;86.10;;;;;;4994212;28;20112;-88
2022/01/26 09:32:55;;;;;;;123.93;52.30;;;2.40;86.10;;;;;;4995097;28;20049;-88
2022/01/26 09:35:22;;;;;;;127.15;53.25;;;2.40;86.10;;;;;;4995411;28;20129;-88
2022/01/26 09:37:49;;;;;;;128.73;53.63;;;2.40;86.10;;;;;;4995677;28;20419;-88
2022/01/26 09:40:16;;;;;;;123.35;51.13;;;2.40;86.10;;;;;;4994498;28;20050;-89
2022/01/26 09:42:46;;;;;;;127.25;53.80;;;2.40;86.10;;;;;;4995146;28;20053;-88
2022/01/26 09:45:13;;;;;;;126.95;52.65;;;2.40;86.10;;;;;;4993989;28;20046;-88
2022/01/26 09:47:40;;;;;;;132.40;54.28;;;2.40;86.10;;;;;;4994811;28;20043;-88
2022/01/26 09:50:27;;;;;;;127.80;52.95;;;2.40;86.10;;;;;;4995138;28;20046;-88
2022/01/26 09:52:56;;;;;;;126.55;51.92;;;2.50;86.10;;;;;;4994001;28;20078;-87
2022/01/26 09:55:24;;;;;;;129.52;53.88;;;2.50;86.10;;;;;;4994254;28;20047;-88
2022/01/26 09:57:57;;;;;;;128.30;53.38;;;2.40;86.10;;;;;;4994865;28;20064;-87
2022/01/26 10:00:27;;;;;;;138.85;55.55;;;2.50;86.10;;;;;;4993440;28;20503;-87
2022/01/26 10:03:03;;;;;;;138.98;54.33;;;2.40;86.10;;;;;;4993588;28;20047;-88
2022/01/26 10:05:57;;;;;;;131.15;53.90;;;2.50;86.10;;;;;;4994938;28;20042;-88
2022/01/26 10:19:28;;;;;;;131.82;53.42;;;2.50;86.10;;;;;;4948074;28;20051;-87
2022/01/26 10:21:56;;;;;;;130.23;54.70;;;2.50;86.10;;;;;;4953892;28;20059;-88
2022/01/26 10:24:28;;;;;;;135.80;55.65;;;2.50;86.10;;;;;;4953684;28;20053;-87
2022/01/26 10:27:00;;;;;;;126.82;54.78;;;2.60;86.10;;;;;;4953444;28;20051;-87
2022/01/26 10:29:33;;;;;;;135.70;57.30;;;2.60;86.10;;;;;;4953236;28;20521;-88
2022/01/26 10:32:11;;;;;;;140.88;55.70;;;2.60;86.10;;;;;;4938003;28;20513;-88
2022/01/26 10:34:38;;;;;;;137.55;56.13;;;2.60;86.10;;;;;;4950142;28;20055;-87
2022/01/26 10:37:05;;;;;;;135.52;57.15;;;2.60;86.10;;;;;;4953424;28;20496;-87
2022/01/26 10:39:42;;;;;;;132.60;54.75;;;2.60;86.10;;;;;;4953177;28;20066;-87
2022/01/26 10:42:16;;;;;;;132.65;56.13;;;2.70;86.10;;;;;;4953490;28;20051;-88
2022/01/26 10:47:26;;;;;;;148.05;58.53;;;2.70;86.10;;;;;;4953388;28;20059;-87
2022/01/26 10:52:43;;;;;;;141.27;56.45;;;2.70;86.10;;;;;;4918260;28;20044;-88
2022/01/26 10:55:11;;;;;;;135.52;56.55;;;2.70;86.10;;;;;;4971514;28;20459;-87
2022/01/26 10:57:38;;;;;;;138.43;56.15;;;2.70;86.10;;;;;;4971266;28;20078;-86
2022/01/26 11:00:06;;;;;;;138.20;55.50;;;2.70;86.10;;;;;;4970645;28;20127;-86
2022/01/26 11:02:34;;;;;;;131.65;56.35;;;2.70;86.00;;;;;;4971030;28;20053;-87
2022/01/26 11:05:02;;;;;;;136.70;56.28;;;2.70;86.00;;;;;;4955816;28;20149;-87
2022/01/26 11:07:40;;;;;;;126.80;54.78;;;2.80;86.00;;;;;;4951524;28;20061;-89
2022/01/26 11:10:09;;;;;;;144.80;57.75;;;2.80;86.00;;;;;;4954827;28;20054;-88
2022/01/26 11:12:41;;;;;;;134.05;55.72;;;2.80;86.00;;;;;;4970823;28;20054;-87
2022/01/26 11:15:13;;;;;;;139.80;56.60;;;2.80;86.00;;;;;;4954392;28;20047;-87
2022/01/26 11:17:43;;;;;;;124.35;55.67;;;2.80;86.00;;;;;;4970854;28;20053;-87
2022/01/26 11:20:33;;;;;;;136.07;56.70;;;2.80;86.00;;;;;;4954985;28;20138;-88
2022/01/26 11:23:05;;;;;;;135.00;56.53;;;2.80;86.00;;;;;;4955616;28;20053;-87
2022/01/26 11:25:41;;;;;;;130.30;54.58;;;2.90;86.00;;;;;;4968190;28;20141;-89
2022/01/26 11:28:24;;;;;;;131.02;56.33;;;2.90;86.00;;;;;;4970542;28;20551;-88
2022/01/26 11:30:53;;;;;;;129.35;54.72;;;2.90;86.00;;;;;;4993451;28;20054;-88
2022/01/26 11:33:24;;;;;;;122.75;54.00;;;2.90;86.00;;;;;;4996472;28;20047;-87
2022/01/26 11:35:53;;;;;;;126.80;54.45;;;2.90;86.00;;;;;;4996570;28;20042;-87
2022/01/26 11:47:19;;;;;;;134.98;57.53;;;2.90;86.00;;;;;;4982991;28;20052;-87
2022/01/26 11:49:51;;;;;;;115.85;52.35;;;2.90;85.90;;;;;;4997270;28;20507;-88
2022/01/26 11:52:26;;;;;;;137.55;55.63;;;2.90;85.90;;;;;;4995411;28;20487;-88
2022/01/26 11:54:57;;;;;;;121.50;52.10;;;2.90;85.90;;;;;;4997231;28;20046;-88
2022/01/26 11:57:49;;;;;;;117.68;51.85;;;2.90;85.90;;;;;;4996930;28;20050;-89
2022/01/26 12:00:32;;;;;;;118.95;49.25;;;3.00;85.90;;;;;;4998726;28;20046;-88
2022/01/26 12:03:00;;;;;;;116.18;50.90;;;3.00;85.90;;;;;;4997270;28;20152;-88
2022/01/26 12:05:27;;;;;;;117.38;50.40;;;3.00;85.90;;;;;;4997172;28;20088;-88
2022/01/26 12:07:59;;;;;;;111.30;47.60;;;3.00;85.90;;;;;;4996852;28;20133;-88
2022/01/26 12:10:29;;;;;;;107.70;48.67;;;3.00;85.90;;;;;;4996232;28;20551;-87
2022/01/26 12:13:06;;;;;;;107.55;46.40;;;3.00;85.90;;;;;;4997066;28;20129;-87
2022/01/26 12:15:53;;;;;;;114.78;47.20;;;3.00;85.90;;;;;;4996800;28;20046;-87
2022/01/26 12:18:32;;;;;;;103.32;45.40;;;3.00;85.80;;;;;;4996965;28;20479;-88
2022/01/26 12:32:20;;;;;;;93.45;43.30;;;3.00;85.80;;;;;;4982143;28;20065;-87
2022/01/26 12:45:22;;;;;;;90.35;41.92;;;3.00;85.80;;;;;;4996459;28;20057;-89
2022/01/26 12:47:55;;;;;;;88.00;41.58;;;3.10;85.80;;;;;;4995170;28;20073;-88
2022/01/26 12:50:28;;;;;;;84.63;41.47;;;3.10;85.80;;;;;;4996283;28;20038;-87
2022/01/26 12:52:57;;;;;;;89.78;41.58;;;3.10;85.80;;;;;;4995044;28;20046;-86
2022/01/26 12:55:27;;;;;;;85.47;42.22;;;3.10;85.70;;;;;;4995110;28;20052;-87
2022/01/26 12:57:56;;;;;;;76.13;40.53;;;3.10;85.80;;;;;;4995028;28;20138;-87
2022/01/26 13:00:24;;;;;;;86.68;40.28;;;3.10;85.80;;;;;;4996088;28;20058;-87
2022/01/26 13:02:52;;;;;;;83.28;40.38;;;3.10;85.80;;;;;;4995916;28;20430;-87
2022/01/26 13:05:26;;;;;;;87.55;40.97;;;3.10;85.80;;;;;;4996074;28;20050;-87
2022/01/26 13:08:02;;;;;;;80.78;40.08;;;3.20;85.80;;;;;;4994612;28;20066;-87
2022/01/26 13:10:30;;;;;;;83.63;39.13;;;3.20;85.80;;;;;;4990794;28;20499;-88
2022/01/26 13:13:22;;;;;;;83.07;39.63;;;3.20;85.80;;;;;;4997347;28;20047;-87
2022/01/26 13:16:07;;;;;;;72.65;38.53;;;3.20;85.80;;;;;;4995703;28;20047;-87
2022/01/26 13:22:05;;;;;;;71.78;36.47;;;3.20;85.80;;;;;;4995648;28;20046;-87
2022/01/26 13:27:26;;;;;;;77.05;37.85;;;3.30;85.80;;;;;;4995799;28;20519;-87
2022/01/26 13:30:08;;;;;;;73.20;38.30;;;3.30;85.80;;;;;;4995527;28;20085;-87
2022/01/26 13:35:33;;;;;;;76.35;36.92;;;3.40;85.70;;;;;;4995897;28;20530;-87
2022/01/26 13:46:51;;;;;;;67.47;35.78;;;3.40;85.60;;;;;;4994592;28;20046;-87
2022/01/26 13:52:15;;;;;;;67.72;36.95;;;3.40;85.60;;;;;;4994991;28;19928;-87
2022/01/26 13:55:04;;;;;;;68.40;37.45;;;3.50;85.50;;;;;;4993524;28;20522;-87
2022/01/26 14:00:20;;;;;;;66.35;34.80;;;3.50;85.50;;;;;;4994982;28;20042;-87
2022/01/26 14:02:51;;;;;;;62.00;33.75;;;3.50;85.50;;;;;;4994941;28;20046;-87
2022/01/26 14:05:19;;;;;;;63.92;34.97;;;3.50;85.40;;;;;;4994999;28;20074;-87
2022/01/26 14:07:46;;;;;;;60.55;34.33;;;3.50;85.40;;;;;;4994282;28;20054;-87
2022/01/26 14:10:13;;;;;;;62.28;36.13;;;3.50;85.40;;;;;;4994086;28;20054;-87
2022/01/26 14:12:46;;;;;;;67.32;35.28;;;3.60;85.40;;;;;;4994819;28;20049;-87
2022/01/26 14:15:18;;;;;;;62.78;34.97;;;3.60;85.30;;;;;;4994647;28;20057;-88
2022/01/26 14:23:16;;;;;;;60.20;34.92;;;3.60;85.30;;;;;;4994247;28;20430;-88
2022/01/26 14:25:47;;;;;;;61.50;35.22;;;3.70;85.20;;;;;;4992176;28;20054;-87
2022/01/26 14:28:23;;;;;;;60.60;34.88;;;3.70;85.20;;;;;;4977659;28;20073;-87
2022/01/26 14:31:11;;;;;;;59.53;32.20;;;3.60;85.20;;;;;;4993097;28;20050;-87
2022/01/26 15:51:50;;;;;;;49.40;30.27;;;3.90;84.40;;;;;;4993370;28;20060;-86
2022/01/26 15:57:25;;;;;;;47.95;28.75;;;3.90;84.40;;;;;;4993384;28;20080;-87
2022/01/26 16:05:55;;;;;;;48.90;29.40;;;3.90;84.40;;;;;;4933216;29;20568;-86
2022/01/26 16:19:57;;;;;;;45.35;28.83;;;3.80;84.30;;;;;;4896753;29;20054;-88
2022/01/26 18:49:11;;;;;;;51.75;29.05;;;3.70;84.30;;;;;;4994263;28;20054;-88
2022/01/26 18:49:40;;;;;;;47.10;28.27;;;3.70;84.30;;;;;;4990818;28;20054;-88
2022/01/26 18:52:08;;;;;;;47.97;27.65;;;3.70;84.20;;;;;;4992451;28;20054;-88
2022/01/26 18:54:38;;;;;;;43.60;27.50;;;3.70;84.30;;;;;;4994245;28;20054;-89
2022/01/26 18:57:07;;;;;;;44.63;29.05;;;3.70;84.30;;;;;;4991366;28;20062;-88
2022/01/26 18:59:35;;;;;;;48.70;28.77;;;3.70;84.30;;;;;;4988085;28;20495;-88
2022/01/26 19:02:04;;;;;;;48.55;29.77;;;3.80;84.30;;;;;;4993215;28;20041;-88
2022/01/26 19:04:51;;;;;;;43.03;28.23;;;3.70;84.30;;;;;;4992601;28;20061;-88
2022/01/26 19:07:18;;;;;;;44.60;28.58;;;3.80;84.30;;;;;;4991319;28;20059;-88
2022/01/26 19:09:49;;;;;;;46.60;29.08;;;3.70;84.20;;;;;;4992176;28;20053;-88
2022/01/26 19:12:18;;;;;;;45.95;28.38;;;3.70;84.20;;;;;;4993131;28;20053;-90
2022/01/26 19:14:55;;;;;;;45.53;28.40;;;3.80;84.20;;;;;;4992300;28;20039;-90
2022/01/26 19:17:29;;;;;;;46.00;28.65;;;3.70;84.20;;;;;;4979703;28;20054;-88
2022/01/26 19:25:27;;;;;;;43.55;28.50;;;3.80;84.20;;;;;;4994919;28;20414;-88
2022/01/26 19:27:58;;;;;;;45.97;27.83;;;3.80;84.20;;;;;;4993077;28;20064;-88
2022/01/26 19:44:18;;;;;;;42.90;27.85;;;3.80;84.20;;;;;;4993441;28;20046;-87
2022/01/26 19:52:10;;;;;;;45.53;29.08;;;3.80;84.20;;;;;;4995646;28;20058;-87
2022/01/26 19:54:41;;;;;;;46.92;28.85;;;3.80;84.20;;;;;;4996690;28;20054;-87
2022/01/26 19:57:08;;;;;;;44.67;27.80;;;3.80;84.20;;;;;;4996677;28;20046;-88
2022/01/26 19:59:37;;;;;;;45.53;28.73;;;3.80;84.20;;;;;;4997187;28;20077;-88